Time;durP1;ratioP1;P1;durP2;ratioP2;P2;SDS_P1;SDS_P2;PMS_P1;PMS_P2;Temp;Humidity;BMP_temperature;BMP_pressure;BME280_temperature;BME280_humidity;BME280_pressure;Samples;Min_cycle;Max_cycle;Signal;HPM_P1;HPM_P2
2022/08/31 00:06:04;;;;;;;;;;;16.70;99.90;;;;;;5035132;28;19965;-69
2022/08/31 00:08:31;;;;;;;;;;;16.80;99.90;;;;;;5031001;28;20446;-69
2022/08/31 00:10:58;;;;;;;;;;;16.90;99.90;;;;;;5030927;28;19951;-69
2022/08/31 00:13:25;;;;;;;;;;;16.90;99.90;;;;;;5021575;28;19913;-69
2022/08/31 00:15:52;;;;;;;;;;;17.10;99.90;;;;;;5010311;28;19909;-70
2022/08/31 00:18:19;;;;;;;;;;;17.10;99.90;;;;;;5010309;28;19917;-69
2022/08/31 00:20:47;;;;;;;;;;;17.30;99.90;;;;;;5010499;28;19997;-70
2022/08/31 00:23:15;;;;;;;;;;;17.30;99.90;;;;;;5010295;28;19921;-70
2022/08/31 00:25:43;;;;;;;;;;;17.30;99.90;;;;;;5020038;28;19909;-70
2022/08/31 00:28:10;;;;;;;;;;;17.50;99.90;;;;;;5030500;28;20016;-69
2022/08/31 00:30:38;;;;;;;;;;;17.50;99.90;;;;;;5029201;28;20287;-69
2022/08/31 00:33:05;;;;;;;;;;;17.60;99.90;;;;;;5030262;28;19909;-70
2022/08/31 00:35:32;;;;;;;;;;;17.70;99.90;;;;;;5030550;28;20305;-69
2022/08/31 00:37:59;;;;;;;;;;;17.80;99.90;;;;;;5030012;28;19961;-69
2022/08/31 00:40:26;;;;;;;;;;;17.90;99.90;;;;;;5030338;28;19914;-69
2022/08/31 00:42:53;;;;;;;;;;;17.90;99.90;;;;;;5032974;28;19917;-68
2022/08/31 00:45:20;;;;;;;;;;;17.90;99.90;;;;;;5031454;28;19988;-68
2022/08/31 00:47:47;;;;;;;;;;;17.90;99.90;;;;;;5030222;28;19909;-69
2022/08/31 00:50:15;;;;;;;;;;;18.00;99.90;;;;;;5029415;28;19913;-68
2022/08/31 00:52:44;;;;;;;;;;;18.00;99.90;;;;;;5030270;28;19913;-69
2022/08/31 00:55:21;;;;;;;;;;;18.00;99.90;;;;;;5030306;28;20295;-68
2022/08/31 00:57:50;;;;;;;;;;;18.20;99.90;;;;;;5030113;28;19909;-70
2022/08/31 01:00:21;;;;;;;;;;;18.30;99.90;;;;;;5029948;28;20325;-69
2022/08/31 01:02:48;;;;;;;;;;;18.30;99.90;;;;;;5031494;28;19959;-70
2022/08/31 01:05:16;;;;;;;;;;;18.40;99.90;;;;;;5033697;28;19953;-69
2022/08/31 01:07:45;;;;;;;;;;;18.50;99.90;;;;;;5033367;28;19909;-69
2022/08/31 01:10:13;;;;;;;;;;;18.60;99.90;;;;;;5033417;28;19929;-69
2022/08/31 01:12:40;;;;;;;;;;;18.70;99.90;;;;;;5033775;28;19909;-69
2022/08/31 01:15:08;;;;;;;;;;;18.90;99.90;;;;;;5033485;28;19915;-68
2022/08/31 01:17:35;;;;;;;;;;;18.90;99.90;;;;;;5033322;28;20008;-69
2022/08/31 01:20:02;;;;;;;;;;;19.10;99.90;;;;;;5033387;28;19916;-69
2022/08/31 01:22:57;;;;;;;;;;;19.10;99.90;;;;;;5033208;28;19917;-68
2022/08/31 01:25:24;;;;;;;;;;;19.10;99.90;;;;;;5020420;28;20375;-69
2022/08/31 01:27:51;;;;;;;;;;;18.70;99.90;;;;;;5033059;28;20379;-69
2022/08/31 01:30:24;;;;;;;;;;;18.60;99.90;;;;;;5033141;28;19909;-68
2022/08/31 01:32:51;;;;;;;;;;;18.60;99.90;;;;;;5033096;28;20347;-69
2022/08/31 01:35:19;;;;;;;;;;;18.60;99.90;;;;;;5033039;28;19920;-69
2022/08/31 01:37:45;;;;;;;;;;;18.60;99.90;;;;;;5032821;28;19909;-67
2022/08/31 01:40:12;;;;;;;;;;;18.50;99.90;;;;;;5033022;28;19909;-67
2022/08/31 01:42:39;;;;;;;;;;;18.40;99.90;;;;;;5032877;28;19917;-68
2022/08/31 01:45:06;;;;;;;;;;;18.30;99.90;;;;;;5032755;28;20351;-69
2022/08/31 01:47:33;;;;;;;;;;;18.40;99.90;;;;;;5032845;28;20000;-68
2022/08/31 01:49:59;;;;;;;;;;;18.40;99.90;;;;;;5032673;28;19923;-68
2022/08/31 01:52:27;;;;;;;;;;;18.30;99.90;;;;;;5032761;28;19969;-68
2022/08/31 01:54:54;;;;;;;;;;;18.30;99.90;;;;;;5033118;28;19913;-68
2022/08/31 01:57:21;;;;;;;;;;;18.30;99.90;;;;;;5032892;28;19909;-68
2022/08/31 01:59:47;;;;;;;;;;;18.20;99.90;;;;;;5032632;28;19909;-68
2022/08/31 02:02:14;;;;;;;;;;;18.20;99.90;;;;;;5032474;28;19921;-69
2022/08/31 02:04:41;;;;;;;;;;;18.20;99.90;;;;;;5032652;28;19941;-69
2022/08/31 02:07:07;;;;;;;;;;;18.30;99.90;;;;;;5032555;28;19910;-68
2022/08/31 02:09:34;;;;;;;;;;;18.30;99.90;;;;;;5032261;28;19977;-69
2022/08/31 02:12:01;;;;;;;;;;;18.30;99.90;;;;;;5032541;28;19909;-68
2022/08/31 02:14:27;;;;;;;;;;;18.30;99.90;;;;;;5031072;28;19909;-69
2022/08/31 02:16:54;;;;;;;;;;;18.20;99.90;;;;;;5032356;28;20012;-68
2022/08/31 02:19:21;;;;;;;;;;;18.10;99.90;;;;;;5031099;28;19913;-69
2022/08/31 02:21:48;;;;;;;;;;;18.10;99.90;;;;;;5032144;28;19920;-70
2022/08/31 02:24:14;;;;;;;;;;;18.10;99.90;;;;;;5032566;28;19913;-69
2022/08/31 02:26:41;;;;;;;;;;;18.00;99.90;;;;;;5032363;28;19961;-70
2022/08/31 02:29:08;;;;;;;;;;;18.00;99.90;;;;;;5032380;28;19916;-69
2022/08/31 02:31:35;;;;;;;;;;;17.90;99.90;;;;;;5032232;28;19913;-69
2022/08/31 02:34:02;;;;;;;;;;;17.80;99.90;;;;;;5035672;28;19916;-69
2022/08/31 02:36:31;;;;;;;;;;;17.80;99.90;;;;;;5032003;28;19909;-68
2022/08/31 02:38:57;;;;;;;;;;;17.80;99.90;;;;;;5032167;28;19916;-68
2022/08/31 02:41:24;;;;;;;;;;;17.60;99.90;;;;;;5031932;28;20363;-69
2022/08/31 02:43:51;;;;;;;;;;;17.60;99.90;;;;;;5031679;28;19921;-69
2022/08/31 02:46:18;;;;;;;;;;;17.60;99.90;;;;;;5031737;28;19909;-69
2022/08/31 02:48:45;;;;;;;;;;;17.70;99.90;;;;;;5031936;28;19909;-68
2022/08/31 02:51:11;;;;;;;;;;;17.90;99.90;;;;;;5031977;28;19914;-69
2022/08/31 02:53:41;;;;;;;;;;;17.90;99.90;;;;;;5031688;28;19982;-70
2022/08/31 02:56:08;;;;;;;;;;;18.00;99.90;;;;;;5031706;28;19989;-70
2022/08/31 02:58:35;;;;;;;;;;;18.10;99.90;;;;;;5031753;28;20010;-69
2022/08/31 03:01:03;;;;;;;;;;;18.20;99.90;;;;;;5031673;28;19917;-68
2022/08/31 03:03:30;;;;;;;;;;;18.20;99.90;;;;;;5063707;28;20385;-69
2022/08/31 03:05:57;;;;;;;;;;;18.30;99.90;;;;;;5031488;28;20017;-68
2022/08/31 03:08:24;;;;;;;;;;;18.20;99.90;;;;;;5031991;28;19913;-67
2022/08/31 03:10:51;;;;;;;;;;;18.20;99.90;;;;;;5031741;28;20371;-69
2022/08/31 03:13:17;;;;;;;;;;;18.10;99.90;;;;;;5031898;28;20320;-68
2022/08/31 03:15:44;;;;;;;;;;;18.00;99.90;;;;;;5031172;28;19913;-70
2022/08/31 03:18:12;;;;;;;;;;;18.00;99.90;;;;;;5031868;28;20308;-70
2022/08/31 03:20:39;;;;;;;;;;;18.10;99.90;;;;;;5031605;28;19963;-70
2022/08/31 03:23:05;;;;;;;;;;;18.10;99.90;;;;;;5031514;28;20371;-68
2022/08/31 03:25:32;;;;;;;;;;;18.10;99.90;;;;;;5031100;28;20359;-69
2022/08/31 03:27:59;;;;;;;;;;;18.10;99.90;;;;;;5031170;28;20014;-69
2022/08/31 03:30:26;;;;;;;;;;;18.10;99.90;;;;;;5031228;28;19910;-69
2022/08/31 03:32:53;;;;;;;;;;;18.30;99.90;;;;;;5063225;27;19966;-70
2022/08/31 03:35:20;;;;;;;;;;;18.20;99.90;;;;;;5063187;28;19921;-70
2022/08/31 03:37:46;;;;;;;;;;;18.30;99.90;;;;;;5031048;28;19917;-70
2022/08/31 03:40:13;;;;;;;;;;;18.40;99.90;;;;;;5031209;28;19951;-68
2022/08/31 03:42:41;;;;;;;;;;;18.30;99.90;;;;;;5031185;28;19917;-69
2022/08/31 03:45:08;;;;;;;;;;;18.40;99.90;;;;;;5031046;28;20252;-69
2022/08/31 03:47:35;;;;;;;;;;;18.30;99.90;;;;;;5031175;28;19909;-69
2022/08/31 03:50:04;;;;;;;;;;;18.00;99.90;;;;;;5031011;28;19960;-70
2022/08/31 03:52:31;;;;;;;;;;;17.80;99.90;;;;;;5031134;28;19909;-70
2022/08/31 03:54:58;;;;;;;;;;;17.60;99.90;;;;;;5031154;28;19909;-69
2022/08/31 03:57:25;;;;;;;;;;;17.50;99.90;;;;;;5030966;28;19910;-69
2022/08/31 03:59:53;;;;;;;;;;;17.50;99.90;;;;;;5030375;28;20335;-70
2022/08/31 04:02:20;;;;;;;;;;;17.60;99.90;;;;;;5030544;28;19917;-69
2022/08/31 04:04:53;;;;;;;;;;;17.70;99.90;;;;;;5030813;28;20416;-68
2022/08/31 04:07:20;;;;;;;;;;;17.70;99.90;;;;;;5030857;28;20309;-70
2022/08/31 04:09:47;;;;;;;;;;;17.80;99.90;;;;;;5030308;28;20393;-67
2022/08/31 04:12:14;;;;;;;;;;;17.90;99.90;;;;;;5030510;28;19917;-67
2022/08/31 04:14:45;;;;;;;;;;;17.90;99.90;;;;;;5029672;28;21322;-68
2022/08/31 04:17:12;;;;;;;;;;;17.90;99.90;;;;;;5030451;28;19955;-68
2022/08/31 04:19:40;;;;;;;;;;;17.90;99.90;;;;;;5030394;28;19915;-67
2022/08/31 04:22:07;;;;;;;;;;;18.00;99.90;;;;;;5030317;28;19913;-67
2022/08/31 04:24:34;;;;;;;;;;;18.00;99.90;;;;;;5030362;28;19978;-67
2022/08/31 04:27:00;;;;;;;;;;;18.10;99.90;;;;;;5030288;28;19916;-69
2022/08/31 04:29:27;;;;;;;;;;;18.10;99.90;;;;;;5030352;28;19915;-68
2022/08/31 04:31:54;;;;;;;;;;;18.10;99.90;;;;;;5030262;28;19949;-69
2022/08/31 04:34:21;;;;;;;;;;;18.20;99.90;;;;;;5030237;28;20356;-68
2022/08/31 04:36:47;;;;;;;;;;;18.10;99.90;;;;;;5029390;28;20001;-68
2022/08/31 04:39:14;;;;;;;;;;;17.90;99.90;;;;;;5030455;28;19938;-67
2022/08/31 04:41:41;;;;;;;;;;;17.70;99.90;;;;;;5029927;28;19978;-68
2022/08/31 04:44:10;;;;;;;;;;;17.60;99.90;;;;;;5030135;28;19920;-68
2022/08/31 04:46:37;;;;;;;;;;;17.50;99.90;;;;;;5030339;28;19967;-68
2022/08/31 04:49:06;;;;;;;;;;;17.40;99.90;;;;;;5030176;28;19914;-68
2022/08/31 04:51:36;;;;;;;;;;;17.40;99.90;;;;;;5030303;28;19909;-68
2022/08/31 04:54:04;;;;;;;;;;;17.40;99.90;;;;;;5030226;28;19948;-69
2022/08/31 04:56:31;;;;;;;;;;;17.30;99.90;;;;;;5030254;28;19909;-67
2022/08/31 04:59:03;;;;;;;;;;;17.40;99.90;;;;;;5030301;28;20387;-68
2022/08/31 05:01:37;;;;;;;;;;;17.40;99.90;;;;;;5030199;28;19909;-68
2022/08/31 05:04:04;;;;;;;;;;;17.20;99.90;;;;;;5030152;28;19956;-67
2022/08/31 05:06:31;;;;;;;;;;;17.10;99.90;;;;;;5030144;28;19909;-68
2022/08/31 05:09:05;;;;;;;;;;;17.10;99.90;;;;;;5029923;28;19921;-68
2022/08/31 05:11:33;;;;;;;;;;;17.00;99.90;;;;;;5029981;28;19913;-69
2022/08/31 05:14:00;;;;;;;;;;;17.00;99.90;;;;;;5029802;28;19913;-69
2022/08/31 05:16:29;;;;;;;;;;;16.80;99.90;;;;;;5029860;28;19909;-69
2022/08/31 05:18:57;;;;;;;;;;;16.80;99.90;;;;;;5029732;28;20359;-69
2022/08/31 05:21:28;;;;;;;;;;;16.80;99.90;;;;;;5029775;28;19913;-69
2022/08/31 05:23:56;;;;;;;;;;;16.80;99.90;;;;;;5029459;28;19921;-68
2022/08/31 05:26:25;;;;;;;;;;;16.90;99.90;;;;;;5020551;28;19916;-68
2022/08/31 05:28:52;;;;;;;;;;;16.90;99.90;;;;;;5009345;28;20352;-67
2022/08/31 05:31:19;;;;;;;;;;;16.90;99.90;;;;;;5009478;28;19917;-69
2022/08/31 05:33:46;;;;;;;;;;;16.90;99.90;;;;;;5009199;28;20387;-69
2022/08/31 05:36:13;;;;;;;;;;;16.90;99.90;;;;;;5009271;28;20008;-69
2022/08/31 05:38:40;;;;;;;;;;;16.80;99.90;;;;;;5009139;28;20359;-69
2022/08/31 05:41:06;;;;;;;;;;;16.80;99.90;;;;;;5009244;28;19917;-68
2022/08/31 05:43:34;;;;;;;;;;;16.70;99.90;;;;;;5009233;28;19917;-68
2022/08/31 05:46:00;;;;;;;;;;;16.60;99.90;;;;;;5009011;28;19910;-69
2022/08/31 05:48:32;;;;;;;;;;;16.60;99.90;;;;;;5024739;28;20482;-68
2022/08/31 05:51:03;;;;;;;;;;;16.50;99.90;;;;;;5032931;28;19909;-68
2022/08/31 05:53:30;;;;;;;;;;;16.50;99.90;;;;;;5032737;28;19913;-69
2022/08/31 05:56:00;;;;;;;;;;;16.50;99.90;;;;;;5032563;28;19932;-67
2022/08/31 05:58:27;;;;;;;;;;;16.50;99.90;;;;;;5032572;28;19909;-69
2022/08/31 06:00:54;;;;;;;;;;;16.50;99.90;;;;;;5032473;28;19973;-69
2022/08/31 06:03:21;;;;;;;;;;;16.40;99.90;;;;;;5032565;28;19967;-69
2022/08/31 06:05:51;;;;;;;;;;;16.40;99.90;;;;;;5030774;28;20019;-68
2022/08/31 06:08:19;;;;;;;;;;;16.30;99.90;;;;;;5032389;28;19909;-69
2022/08/31 06:10:46;;;;;;;;;;;16.30;99.90;;;;;;5064377;28;19940;-69
2022/08/31 06:13:13;;;;;;;;;;;16.30;99.90;;;;;;5032373;28;20002;-69
2022/08/31 06:15:40;;;;;;;;;;;16.30;99.90;;;;;;5031952;28;19909;-67
2022/08/31 06:18:07;;;;;;;;;;;16.30;99.90;;;;;;5032469;28;19932;-68
2022/08/31 06:20:37;;;;;;;;;;;16.30;99.90;;;;;;5032346;28;19919;-69
2022/08/31 06:23:05;;;;;;;;;;;16.40;99.90;;;;;;5032221;28;19921;-70
2022/08/31 06:25:32;;;;;;;;;;;16.30;99.90;;;;;;5032333;28;20278;-70
2022/08/31 06:27:59;;;;;;;;;;;16.30;99.90;;;;;;5032085;28;19965;-67
2022/08/31 06:30:26;;;;;;;;;;;16.30;99.90;;;;;;5032164;28;19909;-69
2022/08/31 06:32:55;;;;;;;;;;;16.30;99.90;;;;;;5032354;28;19909;-67
2022/08/31 06:35:27;;;;;;;;;;;16.30;99.90;;;;;;5032296;28;20026;-68
2022/08/31 06:37:55;;;;;;;;;;;16.30;99.90;;;;;;5031948;28;20008;-68
2022/08/31 06:40:24;;;;;;;;;;;16.40;99.90;;;;;;5032069;28;19909;-69
2022/08/31 06:42:51;;;;;;;;;;;16.40;99.90;;;;;;5032130;28;20434;-69
2022/08/31 06:45:18;;;;;;;;;;;16.40;99.90;;;;;;5032019;28;19910;-67
2022/08/31 06:47:46;;;;;;;;;;;16.40;99.90;;;;;;5031789;28;20483;-68
2022/08/31 06:50:12;;;;;;;;;;;16.40;99.90;;;;;;5031963;28;20369;-68
2022/08/31 06:52:39;;;;;;;;;;;16.40;99.90;;;;;;5031759;28;19909;-69
2022/08/31 06:55:06;;;;;;;;;;;16.30;99.90;;;;;;5031841;28;19915;-69
2022/08/31 06:57:33;;;;;;;;;;;16.40;99.90;;;;;;5031894;28;19978;-68
2022/08/31 07:00:00;;;;;;;;;;;16.40;99.90;;;;;;5030488;28;19915;-68
2022/08/31 07:02:26;;;;;;;;;;;16.30;99.90;;;;;;5031839;28;19924;-67
2022/08/31 07:04:53;;;;;;;;;;;16.30;99.90;;;;;;5031738;28;20412;-68
2022/08/31 07:07:19;;;;;;;;;;;16.30;99.90;;;;;;5031601;28;19999;-67
2022/08/31 07:09:46;;;;;;;;;;;16.30;99.90;;;;;;5031208;28;19970;-67
2022/08/31 07:12:13;;;;;;;;;;;16.30;99.90;;;;;;5031423;28;19910;-68
2022/08/31 07:14:40;;;;;;;;;;;16.30;99.90;;;;;;5030072;28;19958;-68
2022/08/31 07:17:07;;;;;;;;;;;16.30;99.90;;;;;;5031426;28;19909;-68
2022/08/31 07:19:34;;;;;;;;;;;16.30;99.90;;;;;;5031118;28;19984;-69
2022/08/31 07:22:04;;;;;;;;;;;16.30;99.90;;;;;;5030952;28;19920;-68
2022/08/31 07:24:34;;;;;;;;;;;16.20;99.90;;;;;;5031163;28;19981;-68
2022/08/31 07:27:03;;;;;;;;;;;16.30;99.90;;;;;;5031176;28;19916;-69
2022/08/31 07:29:36;;;;;;;;;;;16.30;99.90;;;;;;5030981;28;20252;-68
2022/08/31 07:32:03;;;;;;;;;;;16.30;99.90;;;;;;5031275;28;19925;-68
2022/08/31 07:34:30;;;;;;;;;;;16.30;99.90;;;;;;5030539;28;20435;-69
2022/08/31 07:42:31;;;;;;;;;;;16.30;99.90;;;;;;5031044;28;19966;-68
2022/08/31 07:44:59;;;;;;;;;;;16.20;99.90;;;;;;5030840;28;19978;-68
2022/08/31 07:47:27;;;;;;;;;;;16.20;99.90;;;;;;5031109;28;19909;-70
2022/08/31 07:49:55;;;;;;;;;;;16.20;99.90;;;;;;5030569;28;19914;-68
2022/08/31 07:52:29;;;;;;;;;;;16.20;99.90;;;;;;5030683;28;19913;-68
2022/08/31 07:55:06;;;;;;;;;;;16.20;99.90;;;;;;5030973;28;19944;-68
2022/08/31 07:57:35;;;;;;;;;;;16.20;99.90;;;;;;5030613;28;19910;-69
2022/08/31 08:00:07;;;;;;;;;;;16.10;99.90;;;;;;5030557;28;19909;-67
2022/08/31 08:02:37;;;;;;;;;;;16.20;99.90;;;;;;5030731;28;19921;-67
2022/08/31 08:05:06;;;;;;;;;;;16.20;99.90;;;;;;5030701;28;19920;-69
2022/08/31 08:07:34;;;;;;;;;;;16.20;99.90;;;;;;5029503;28;19913;-68
2022/08/31 08:10:01;;;;;;;;;;;16.20;99.90;;;;;;5030524;28;19921;-69
2022/08/31 08:12:30;;;;;;;;;;;16.10;99.90;;;;;;5030395;28;19909;-68
2022/08/31 08:14:58;;;;;;;;;;;16.10;99.90;;;;;;5030604;28;19948;-70
2022/08/31 08:17:24;;;;;;;;;;;16.10;99.90;;;;;;5030635;28;20422;-69
2022/08/31 08:19:51;;;;;;;;;;;16.00;99.90;;;;;;5030373;28;19916;-69
2022/08/31 08:22:18;;;;;;;;;;;16.00;99.90;;;;;;5025595;28;19917;-70
2022/08/31 08:24:46;;;;;;;;;;;16.00;99.90;;;;;;5010439;28;19923;-67
2022/08/31 08:27:13;;;;;;;;;;;16.00;99.90;;;;;;5010546;28;19917;-68
2022/08/31 08:29:40;;;;;;;;;;;16.00;99.90;;;;;;5008986;28;19953;-68
2022/08/31 08:32:09;;;;;;;;;;;16.00;99.90;;;;;;5010515;28;20351;-68
2022/08/31 08:34:39;;;;;;;;;;;16.00;99.90;;;;;;5010578;28;19910;-68
2022/08/31 08:37:08;;;;;;;;;;;16.00;99.90;;;;;;5009571;28;19910;-69
2022/08/31 08:39:36;;;;;;;;;;;16.00;99.90;;;;;;5010201;28;19910;-68
2022/08/31 08:42:03;;;;;;;;;;;15.90;99.90;;;;;;5008989;28;19917;-69
2022/08/31 08:44:32;;;;;;;;;;;15.90;99.90;;;;;;5010129;28;20237;-69
2022/08/31 08:47:00;;;;;;;;;;;15.90;99.90;;;;;;5010487;28;20000;-69
2022/08/31 08:49:45;;;;;;;;;;;15.80;99.90;;;;;;5010429;28;19963;-68
2022/08/31 08:52:16;;;;;;;;;;;15.90;99.90;;;;;;5010534;28;19963;-68
2022/08/31 08:54:44;;;;;;;;;;;15.70;99.90;;;;;;5010380;28;19909;-68
2022/08/31 08:57:13;;;;;;;;;;;15.70;99.90;;;;;;5010557;28;19913;-68
2022/08/31 08:59:41;;;;;;;;;;;15.70;99.90;;;;;;5009903;28;19910;-67
2022/08/31 09:02:13;;;;;;;;;;;15.70;99.90;;;;;;5010303;28;20008;-69
2022/08/31 09:04:47;;;;;;;;;;;15.60;99.90;;;;;;5010344;28;19914;-69
2022/08/31 09:07:32;;;;;;;;;;;15.60;99.90;;;;;;5010295;28;19917;-69
2022/08/31 09:10:16;;;;;;;;;;;15.60;99.90;;;;;;5009905;28;19922;-69
2022/08/31 09:12:56;;;;;;;;;;;15.60;99.90;;;;;;5010127;28;19916;-69
2022/08/31 09:15:35;;;;;;;;;;;15.60;99.90;;;;;;5010230;28;19963;-69
2022/08/31 09:18:19;;;;;;;;;;;15.60;99.90;;;;;;5010212;28;19910;-68
2022/08/31 09:21:02;;;;;;;;;;;15.60;99.90;;;;;;5009935;28;20391;-69
2022/08/31 09:23:31;;;;;;;;;;;15.60;99.90;;;;;;5011174;28;19971;-69
2022/08/31 09:26:01;;;;;;;;;;;15.60;99.90;;;;;;5013346;28;19956;-69
2022/08/31 09:28:35;;;;;;;;;;;15.60;99.90;;;;;;5013231;28;19913;-69
2022/08/31 09:31:02;;;;;;;;;;;15.50;99.90;;;;;;5013383;28;19954;-69
2022/08/31 09:33:31;;;;;;;;;;;15.60;99.90;;;;;;5013342;28;19917;-69
2022/08/31 09:36:15;;;;;;;;;;;15.60;99.90;;;;;;5013020;28;19910;-68
2022/08/31 09:38:42;;;;;;;;;;;15.60;99.90;;;;;;5013166;28;19909;-69
2022/08/31 09:41:27;;;;;;;;;;;15.60;99.90;;;;;;5013032;28;19910;-69
2022/08/31 09:43:55;;;;;;;;;;;15.60;99.90;;;;;;5012655;28;20415;-68
2022/08/31 09:46:27;;;;;;;;;;;15.60;99.90;;;;;;5013183;28;19909;-68
2022/08/31 09:48:57;;;;;;;;;;;15.60;99.90;;;;;;5013203;28;19910;-68
2022/08/31 09:51:33;;;;;;;;;;;15.50;99.90;;;;;;5012971;28;19913;-68
2022/08/31 09:56:56;;;;;;;;;;;15.60;99.90;;;;;;5013177;28;20058;-67
2022/08/31 09:59:29;;;;;;;;;;;15.50;99.90;;;;;;5012594;28;19949;-67
2022/08/31 10:01:59;;;;;;;;;;;15.60;99.90;;;;;;5012768;28;19913;-68
2022/08/31 10:04:31;;;;;;;;;;;15.60;99.90;;;;;;5012975;28;20362;-67
2022/08/31 10:07:10;;;;;;;;;;;15.60;99.90;;;;;;5012898;28;19909;-68
2022/08/31 10:09:43;;;;;;;;;;;15.60;99.90;;;;;;5012541;28;19921;-67
2022/08/31 10:12:13;;;;;;;;;;;15.50;99.90;;;;;;5012805;28;19910;-68
2022/08/31 10:14:42;;;;;;;;;;;15.50;99.90;;;;;;5012729;28;20322;-68
2022/08/31 10:17:15;;;;;;;;;;;15.40;99.90;;;;;;5012725;28;19954;-68
2022/08/31 10:19:50;;;;;;;;;;;15.40;99.90;;;;;;5012508;28;19962;-69
2022/08/31 10:22:24;;;;;;;;;;;15.30;99.90;;;;;;5012825;28;19924;-68
2022/08/31 10:25:03;;;;;;;;;;;15.30;99.90;;;;;;5012810;28;20363;-70
2022/08/31 10:27:37;;;;;;;;;;;15.30;99.90;;;;;;5012550;28;19955;-69
2022/08/31 10:30:22;;;;;;;;;;;15.30;99.90;;;;;;5012793;28;19914;-69
2022/08/31 10:32:52;;;;;;;;;;;15.30;99.90;;;;;;5012783;28;19917;-69
2022/08/31 10:35:21;;;;;;;;;;;15.20;99.90;;;;;;5011601;28;19936;-69
2022/08/31 10:38:07;;;;;;;;;;;15.30;99.90;;;;;;5012358;28;20279;-68
2022/08/31 10:40:43;;;;;;;;;;;15.30;99.90;;;;;;5012744;28;19955;-68
2022/08/31 10:43:20;;;;;;;;;;;15.30;99.90;;;;;;5012334;28;19917;-68
2022/08/31 10:45:55;;;;;;;;;;;15.30;99.90;;;;;;5012349;28;20363;-68
2022/08/31 10:48:23;;;;;;;;;;;15.30;99.90;;;;;;5011800;28;19909;-68
2022/08/31 10:50:56;;;;;;;;;;;15.30;99.90;;;;;;5012278;28;20372;-68
2022/08/31 10:53:32;;;;;;;;;;;15.30;99.90;;;;;;5012215;28;19937;-68
2022/08/31 10:56:01;;;;;;;;;;;15.30;99.90;;;;;;5011701;28;19910;-69
2022/08/31 10:58:48;;;;;;;;;;;15.30;99.90;;;;;;5012052;28;19917;-68
2022/08/31 11:01:27;;;;;;;;;;;15.20;99.90;;;;;;5012116;28;20000;-68
2022/08/31 11:03:57;;;;;;;;;;;15.30;99.90;;;;;;5011814;28;20406;-68
2022/08/31 11:06:33;;;;;;;;;;;15.30;99.90;;;;;;5011920;28;19919;-69
2022/08/31 11:09:05;;;;;;;;;;;15.20;99.90;;;;;;5011741;28;19962;-68
2022/08/31 11:11:44;;;;;;;;;;;15.30;99.90;;;;;;5012030;28;19963;-68
2022/08/31 11:14:28;;;;;;;;;;;15.30;99.90;;;;;;5011864;28;19909;-68
2022/08/31 11:17:17;;;;;;;;;;;15.30;99.90;;;;;;5011853;28;19909;-67
2022/08/31 11:20:02;;;;;;;;;;;15.40;99.90;;;;;;5011847;28;20283;-67
2022/08/31 11:22:47;;;;;;;;;;;15.50;99.90;;;;;;5011900;28;19925;-67
2022/08/31 11:25:23;;;;;;;;;;;15.40;99.90;;;;;;5011620;28;19910;-68
2022/08/31 11:27:56;;;;;;;;;;;15.40;99.90;;;;;;5009494;28;19952;-68
2022/08/31 11:30:26;;;;;;;;;;;15.40;99.90;;;;;;5009596;28;19914;-68
2022/08/31 11:32:58;;;;;;;;;;;15.40;99.90;;;;;;5009274;28;20383;-68
2022/08/31 11:35:43;;;;;;;;;;;15.40;99.90;;;;;;5009676;28;20599;-69
2022/08/31 11:38:34;;;;;;;;;;;15.30;99.90;;;;;;5009384;28;19909;-69
2022/08/31 11:41:02;;;;;;;;;;;15.30;99.90;;;;;;5008968;28;20359;-68
2022/08/31 11:43:32;;;;;;;;;;;15.30;99.90;;;;;;5009104;28;19921;-69
2022/08/31 11:46:23;;;;;;;;;;;15.30;99.90;;;;;;5008745;28;19966;-70
2022/08/31 11:48:50;;;;;;;;;;;15.20;99.90;;;;;;5002725;28;19913;-69
2022/08/31 11:51:31;;;;;;;;;;;15.20;99.90;;;;;;5009409;28;19918;-70
2022/08/31 11:54:10;;;;;;;;;;;15.20;99.90;;;;;;5008556;28;19961;-68
2022/08/31 11:56:38;;;;;;;;;;;15.20;99.90;;;;;;5009294;28;19941;-69
2022/08/31 11:59:28;;;;;;;;;;;15.10;99.90;;;;;;5009154;28;19915;-71
2022/08/31 12:01:59;;;;;;;;;;;15.00;99.90;;;;;;5008820;28;19913;-70
2022/08/31 12:04:29;;;;;;;;;;;14.90;99.90;;;;;;5008703;28;20387;-70
2022/08/31 12:07:02;;;;;;;;;;;14.80;99.90;;;;;;5008710;28;19944;-69
2022/08/31 12:09:50;;;;;;;;;;;14.70;99.90;;;;;;5009095;28;20287;-70
2022/08/31 12:12:26;;;;;;;;;;;14.70;99.90;;;;;;5008817;28;20286;-71
2022/08/31 12:14:59;;;;;;;;;;;14.60;99.90;;;;;;5009043;28;20008;-71
2022/08/31 12:17:29;;;;;;;;;;;14.60;99.90;;;;;;5008367;28;19917;-71
2022/08/31 12:20:11;;;;;;;;;;;14.60;99.90;;;;;;5008315;28;19914;-69
2022/08/31 12:25:41;;;;;;;;;;;14.60;99.90;;;;;;5008790;28;19968;-70
2022/08/31 12:28:21;;;;;;;;;;;14.60;99.90;;;;;;5008681;28;19909;-71
2022/08/31 12:30:50;;;;;;;;;;;14.60;99.90;;;;;;5008761;28;19937;-70
2022/08/31 12:33:18;;;;;;;;;;;14.50;99.90;;;;;;5007815;28;19909;-71
2022/08/31 12:35:48;;;;;;;;;;;14.50;99.90;;;;;;5009808;28;20375;-71
2022/08/31 12:38:19;;;;;;;;;;;14.50;99.90;;;;;;5008663;28;20009;-70
2022/08/31 12:40:56;;;;;;;;;;;14.50;99.90;;;;;;5007448;28;20367;-71
2022/08/31 12:43:22;;;;;;;;;;;14.60;99.90;;;;;;5008616;28;20363;-70
2022/08/31 12:46:01;;;;;;;;;;;14.60;99.90;;;;;;5007976;28;19913;-69
2022/08/31 12:48:40;;;;;;;;;;;14.60;99.90;;;;;;5008094;28;19910;-71
2022/08/31 12:51:19;;;;;;;;;;;14.60;99.90;;;;;;5008497;28;19996;-69
2022/08/31 12:54:04;;;;;;;;;;;14.40;99.90;;;;;;5008220;28;19910;-69
2022/08/31 12:56:48;;;;;;;;;;;14.40;99.90;;;;;;5008526;28;19914;-69
2022/08/31 12:59:21;;;;;;;;;;;14.40;99.90;;;;;;5010748;28;20275;-69
2022/08/31 13:01:49;;;;;;;;;;;14.50;99.90;;;;;;5011086;28;19975;-70
2022/08/31 13:04:17;;;;;;;;;;;14.60;99.90;;;;;;5012017;28;19973;-71
2022/08/31 13:06:47;;;;;;;;;;;14.60;99.90;;;;;;5011975;28;19943;-69
2022/08/31 13:09:25;;;;;;;;;;;14.60;99.90;;;;;;5011768;28;19922;-68
2022/08/31 13:11:52;;;;;;;;;;;14.60;99.90;;;;;;5011320;28;19920;-68
2022/08/31 13:14:25;;;;;;;;;;;14.60;99.90;;;;;;5011823;28;19910;-70
2022/08/31 13:17:05;;;;;;;;;;;14.50;99.90;;;;;;5011242;28;19913;-68
2022/08/31 13:19:33;;;;;;;;;;;14.40;99.90;;;;;;5011658;28;19917;-69
2022/08/31 13:22:05;;;;;;;;;;;14.40;99.90;;;;;;5011376;28;19947;-70
2022/08/31 13:24:39;;;;;;;;;;;14.40;99.90;;;;;;5011660;28;20328;-69
2022/08/31 13:27:09;;;;;;;;;;;14.50;99.90;;;;;;5011270;28;19910;-69
2022/08/31 13:29:46;;;;;;;;;;;14.40;99.90;;;;;;5011385;28;20003;-68
2022/08/31 13:32:32;;;;;;;;;;;14.50;99.90;;;;;;5011186;28;19910;-70
2022/08/31 13:35:07;;;;;;;;;;;14.40;99.90;;;;;;5011063;28;19910;-68
2022/08/31 13:37:38;;;;;;;;;;;14.40;99.90;;;;;;5011502;28;19917;-69
2022/08/31 13:40:07;;;;;;;;;;;14.30;99.90;;;;;;5010959;28;19961;-70
2022/08/31 13:42:41;;;;;;;;;;;14.40;99.90;;;;;;5011293;28;20291;-69
2022/08/31 13:45:29;;;;;;;;;;;14.40;99.90;;;;;;5011558;28;19914;-70
2022/08/31 13:47:57;;;;;;;;;;;14.40;99.90;;;;;;5004159;28;19914;-69
2022/08/31 13:50:27;;;;;;;;;;;14.40;99.90;;;;;;5011385;28;19935;-69
2022/08/31 13:52:56;;;;;;;;;;;14.40;99.90;;;;;;5011000;28;19914;-69
2022/08/31 13:55:35;;;;;;;;;;;14.40;99.90;;;;;;5011357;28;19914;-71
2022/08/31 13:58:06;;;;;;;;;;;14.40;99.90;;;;;;5011213;28;19914;-69
2022/08/31 14:00:33;;;;;;;;;;;14.40;99.90;;;;;;5011287;28;19916;-69
2022/08/31 14:03:18;;;;;;;;;;;14.40;99.90;;;;;;5011007;28;20074;-69
2022/08/31 14:05:44;;;;;;;;;;;14.40;99.90;;;;;;5010543;28;19945;-68
2022/08/31 14:08:18;;;;;;;;;;;14.40;99.90;;;;;;5011115;28;20356;-68
2022/08/31 14:10:48;;;;;;;;;;;14.40;99.90;;;;;;5010764;28;20302;-69
2022/08/31 14:13:20;;;;;;;;;;;14.40;99.90;;;;;;5010952;28;20398;-69
2022/08/31 14:15:49;;;;;;;;;;;14.40;99.90;;;;;;5010720;28;19910;-69
2022/08/31 14:18:15;;;;;;;;;;;14.50;99.90;;;;;;5010515;28;20363;-69
2022/08/31 14:20:44;;;;;;;;;;;14.40;99.90;;;;;;5010737;28;19910;-68
2022/08/31 14:23:23;;;;;;;;;;;14.50;99.90;;;;;;5010638;28;20008;-68
2022/08/31 14:25:57;;;;;;;;;;;14.50;99.90;;;;;;5010532;28;20280;-70
2022/08/31 14:28:37;;;;;;;;;;;14.50;99.90;;;;;;5010806;28;19917;-70
2022/08/31 14:31:11;;;;;;;;;;;14.50;99.90;;;;;;5010241;28;19910;-68
2022/08/31 14:33:42;;;;;;;;;;;14.60;99.90;;;;;;5010374;28;19909;-68
2022/08/31 14:36:18;;;;;;;;;;;14.60;99.90;;;;;;5010670;28;19939;-68
2022/08/31 14:38:45;;;;;;;;;;;14.60;99.90;;;;;;5010689;28;19918;-67
2022/08/31 14:41:15;;;;;;;;;;;14.60;99.90;;;;;;5010339;28;19916;-68
2022/08/31 14:43:43;;;;;;;;;;;14.50;99.90;;;;;;5009960;28;19922;-69
2022/08/31 14:46:10;;;;;;;;;;;14.50;99.90;;;;;;5010376;28;20495;-69
2022/08/31 14:48:41;;;;;;;;;;;14.50;99.90;;;;;;5010584;28;20359;-70
2022/08/31 14:51:08;;;;;;;;;;;14.50;99.90;;;;;;5010466;28;20001;-68